sensor_id;sensor_type;location;lat;lon;timestamp;P1;durP1;ratioP1;P2;durP2;ratioP2
64293;SDS011;50636;45.596;5.258;2023-04-24T00:00:58;8.70;;;1.33;;
64293;SDS011;50636;45.596;5.258;2023-04-24T00:03:26;4.80;;;1.77;;
64293;SDS011;50636;45.596;5.258;2023-04-24T00:05:53;4.55;;;1.42;;
64293;SDS011;50636;45.596;5.258;2023-04-24T00:08:19;5.95;;;1.58;;
64293;SDS011;50636;45.596;5.258;2023-04-24T00:10:45;4.32;;;1.60;;
64293;SDS011;50636;45.596;5.258;2023-04-24T00:13:11;4.68;;;1.40;;
64293;SDS011;50636;45.596;5.258;2023-04-24T00:15:37;4.72;;;1.33;;
64293;SDS011;50636;45.596;5.258;2023-04-24T00:18:03;14.02;;;2.38;;
64293;SDS011;50636;45.596;5.258;2023-04-24T00:20:29;2.83;;;1.10;;
64293;SDS011;50636;45.596;5.258;2023-04-24T00:22:55;4.13;;;1.08;;
64293;SDS011;50636;45.596;5.258;2023-04-24T00:25:21;4.30;;;1.23;;
64293;SDS011;50636;45.596;5.258;2023-04-24T00:27:47;6.53;;;1.60;;
64293;SDS011;50636;45.596;5.258;2023-04-24T00:30:12;6.55;;;1.30;;
64293;SDS011;50636;45.596;5.258;2023-04-24T00:32:38;4.38;;;1.35;;
64293;SDS011;50636;45.596;5.258;2023-04-24T00:35:04;4.15;;;1.48;;
64293;SDS011;50636;45.596;5.258;2023-04-24T00:37:31;3.42;;;1.25;;
64293;SDS011;50636;45.596;5.258;2023-04-24T00:39:57;6.53;;;2.05;;
64293;SDS011;50636;45.596;5.258;2023-04-24T00:42:23;5.00;;;1.35;;
64293;SDS011;50636;45.596;5.258;2023-04-24T00:44:49;2.95;;;1.20;;
64293;SDS011;50636;45.596;5.258;2023-04-24T00:47:16;1.98;;;1.13;;
64293;SDS011;50636;45.596;5.258;2023-04-24T00:49:42;4.43;;;1.83;;
64293;SDS011;50636;45.596;5.258;2023-04-24T00:52:08;3.08;;;1.20;;
64293;SDS011;50636;45.596;5.258;2023-04-24T00:54:34;3.83;;;1.33;;
64293;SDS011;50636;45.596;5.258;2023-04-24T00:57:02;7.93;;;1.77;;
64293;SDS011;50636;45.596;5.258;2023-04-24T00:59:28;8.30;;;1.88;;
64293;SDS011;50636;45.596;5.258;2023-04-24T01:01:54;4.32;;;1.10;;
64293;SDS011;50636;45.596;5.258;2023-04-24T01:04:20;5.18;;;1.00;;
64293;SDS011;50636;45.596;5.258;2023-04-24T01:06:46;6.72;;;1.50;;
64293;SDS011;50636;45.596;5.258;2023-04-24T01:09:15;2.15;;;0.95;;
64293;SDS011;50636;45.596;5.258;2023-04-24T01:11:42;3.08;;;1.50;;
64293;SDS011;50636;45.596;5.258;2023-04-24T01:14:08;3.47;;;1.40;;
64293;SDS011;50636;45.596;5.258;2023-04-24T01:16:35;4.55;;;1.35;;
64293;SDS011;50636;45.596;5.258;2023-04-24T01:19:03;4.22;;;1.30;;
64293;SDS011;50636;45.596;5.258;2023-04-24T01:21:31;9.43;;;1.27;;
64293;SDS011;50636;45.596;5.258;2023-04-24T01:24:02;9.00;;;3.42;;
64293;SDS011;50636;45.596;5.258;2023-04-24T01:26:29;2.95;;;1.00;;
64293;SDS011;50636;45.596;5.258;2023-04-24T01:28:54;9.88;;;1.85;;
64293;SDS011;50636;45.596;5.258;2023-04-24T01:31:21;4.57;;;1.55;;
64293;SDS011;50636;45.596;5.258;2023-04-24T01:33:47;5.57;;;1.25;;
64293;SDS011;50636;45.596;5.258;2023-04-24T01:36:14;6.15;;;1.55;;
64293;SDS011;50636;45.596;5.258;2023-04-24T01:38:41;4.45;;;1.10;;
64293;SDS011;50636;45.596;5.258;2023-04-24T01:41:07;7.55;;;1.80;;
64293;SDS011;50636;45.596;5.258;2023-04-24T01:43:33;3.15;;;1.10;;
64293;SDS011;50636;45.596;5.258;2023-04-24T01:45:58;5.35;;;1.60;;
64293;SDS011;50636;45.596;5.258;2023-04-24T01:48:24;4.28;;;1.30;;
64293;SDS011;50636;45.596;5.258;2023-04-24T01:50:50;8.73;;;1.38;;
64293;SDS011;50636;45.596;5.258;2023-04-24T01:53:16;7.65;;;1.55;;
64293;SDS011;50636;45.596;5.258;2023-04-24T01:55:42;4.78;;;1.25;;
64293;SDS011;50636;45.596;5.258;2023-04-24T01:58:08;8.45;;;1.40;;
64293;SDS011;50636;45.596;5.258;2023-04-24T02:00:33;3.65;;;1.63;;
64293;SDS011;50636;45.596;5.258;2023-04-24T02:02:59;3.20;;;1.10;;
64293;SDS011;50636;45.596;5.258;2023-04-24T02:05:27;6.35;;;2.03;;
64293;SDS011;50636;45.596;5.258;2023-04-24T02:07:53;6.03;;;1.90;;
64293;SDS011;50636;45.596;5.258;2023-04-24T02:10:18;2.72;;;1.10;;
64293;SDS011;50636;45.596;5.258;2023-04-24T02:12:44;12.98;;;2.17;;
64293;SDS011;50636;45.596;5.258;2023-04-24T02:15:10;4.70;;;1.25;;
64293;SDS011;50636;45.596;5.258;2023-04-24T02:17:36;8.70;;;1.23;;
64293;SDS011;50636;45.596;5.258;2023-04-24T02:20:02;5.68;;;1.30;;
64293;SDS011;50636;45.596;5.258;2023-04-24T02:22:28;4.47;;;1.30;;
64293;SDS011;50636;45.596;5.258;2023-04-24T02:24:54;3.25;;;1.52;;
64293;SDS011;50636;45.596;5.258;2023-04-24T02:27:20;7.68;;;1.33;;
64293;SDS011;50636;45.596;5.258;2023-04-24T02:29:46;3.55;;;1.00;;
64293;SDS011;50636;45.596;5.258;2023-04-24T02:32:11;5.30;;;1.27;;
64293;SDS011;50636;45.596;5.258;2023-04-24T02:34:37;5.65;;;1.17;;
64293;SDS011;50636;45.596;5.258;2023-04-24T02:37:03;6.10;;;1.20;;
64293;SDS011;50636;45.596;5.258;2023-04-24T02:39:29;3.30;;;0.95;;
64293;SDS011;50636;45.596;5.258;2023-04-24T02:41:55;4.03;;;1.05;;
64293;SDS011;50636;45.596;5.258;2023-04-24T02:44:21;2.60;;;1.10;;
64293;SDS011;50636;45.596;5.258;2023-04-24T02:46:47;3.78;;;2.13;;
64293;SDS011;50636;45.596;5.258;2023-04-24T02:49:13;7.95;;;1.45;;
64293;SDS011;50636;45.596;5.258;2023-04-24T02:51:39;5.50;;;1.30;;
64293;SDS011;50636;45.596;5.258;2023-04-24T02:54:07;9.93;;;1.23;;
64293;SDS011;50636;45.596;5.258;2023-04-24T02:56:34;2.33;;;1.05;;
64293;SDS011;50636;45.596;5.258;2023-04-24T02:59:00;6.95;;;1.45;;
64293;SDS011;50636;45.596;5.258;2023-04-24T03:01:25;3.15;;;1.20;;
64293;SDS011;50636;45.596;5.258;2023-04-24T03:03:51;3.47;;;1.30;;
64293;SDS011;50636;45.596;5.258;2023-04-24T03:06:17;3.03;;;1.20;;
64293;SDS011;50636;45.596;5.258;2023-04-24T03:08:42;7.47;;;1.25;;
64293;SDS011;50636;45.596;5.258;2023-04-24T03:11:08;5.82;;;1.15;;
64293;SDS011;50636;45.596;5.258;2023-04-24T03:13:34;3.35;;;1.10;;
64293;SDS011;50636;45.596;5.258;2023-04-24T03:16:00;8.05;;;1.40;;
64293;SDS011;50636;45.596;5.258;2023-04-24T03:18:26;2.65;;;1.20;;
64293;SDS011;50636;45.596;5.258;2023-04-24T03:20:51;4.72;;;1.15;;
64293;SDS011;50636;45.596;5.258;2023-04-24T03:23:17;6.75;;;1.42;;
64293;SDS011;50636;45.596;5.258;2023-04-24T03:25:43;3.28;;;1.20;;
64293;SDS011;50636;45.596;5.258;2023-04-24T03:28:09;7.28;;;1.50;;
64293;SDS011;50636;45.596;5.258;2023-04-24T03:30:34;9.88;;;1.50;;
64293;SDS011;50636;45.596;5.258;2023-04-24T03:33:00;6.53;;;0.90;;
64293;SDS011;50636;45.596;5.258;2023-04-24T03:35:26;5.40;;;1.05;;
64293;SDS011;50636;45.596;5.258;2023-04-24T03:37:52;5.43;;;0.90;;
64293;SDS011;50636;45.596;5.258;2023-04-24T03:40:17;5.03;;;1.05;;
64293;SDS011;50636;45.596;5.258;2023-04-24T03:42:43;9.38;;;1.52;;
64293;SDS011;50636;45.596;5.258;2023-04-24T03:45:09;4.75;;;1.10;;
64293;SDS011;50636;45.596;5.258;2023-04-24T03:47:35;8.05;;;1.48;;
64293;SDS011;50636;45.596;5.258;2023-04-24T03:50:01;7.72;;;1.45;;
64293;SDS011;50636;45.596;5.258;2023-04-24T03:52:27;4.43;;;1.63;;
64293;SDS011;50636;45.596;5.258;2023-04-24T03:54:53;9.10;;;2.80;;
64293;SDS011;50636;45.596;5.258;2023-04-24T03:57:18;7.43;;;2.10;;
64293;SDS011;50636;45.596;5.258;2023-04-24T03:59:44;7.13;;;2.45;;
64293;SDS011;50636;45.596;5.258;2023-04-24T04:02:10;8.05;;;2.20;;
64293;SDS011;50636;45.596;5.258;2023-04-24T04:04:36;7.55;;;1.85;;
64293;SDS011;50636;45.596;5.258;2023-04-24T04:07:01;25.85;;;3.53;;
64293;SDS011;50636;45.596;5.258;2023-04-24T04:09:28;9.30;;;1.92;;
64293;SDS011;50636;45.596;5.258;2023-04-24T04:11:54;17.35;;;2.42;;
64293;SDS011;50636;45.596;5.258;2023-04-24T04:14:21;5.28;;;1.27;;
64293;SDS011;50636;45.596;5.258;2023-04-24T04:16:47;7.05;;;1.70;;
64293;SDS011;50636;45.596;5.258;2023-04-24T04:19:12;19.60;;;2.50;;
64293;SDS011;50636;45.596;5.258;2023-04-24T04:21:38;7.32;;;1.15;;
64293;SDS011;50636;45.596;5.258;2023-04-24T04:24:04;8.55;;;1.80;;
64293;SDS011;50636;45.596;5.258;2023-04-24T04:26:30;8.75;;;2.13;;
64293;SDS011;50636;45.596;5.258;2023-04-24T04:28:58;8.65;;;2.30;;
64293;SDS011;50636;45.596;5.258;2023-04-24T04:31:25;14.55;;;2.97;;
64293;SDS011;50636;45.596;5.258;2023-04-24T04:33:51;14.73;;;3.10;;
64293;SDS011;50636;45.596;5.258;2023-04-24T04:36:17;14.45;;;6.13;;
64293;SDS011;50636;45.596;5.258;2023-04-24T04:38:43;21.40;;;10.60;;
64293;SDS011;50636;45.596;5.258;2023-04-24T04:41:09;6.15;;;3.22;;
64293;SDS011;50636;45.596;5.258;2023-04-24T04:43:35;12.55;;;2.95;;
64293;SDS011;50636;45.596;5.258;2023-04-24T04:46:03;13.20;;;4.50;;
64293;SDS011;50636;45.596;5.258;2023-04-24T04:48:28;21.05;;;4.72;;
64293;SDS011;50636;45.596;5.258;2023-04-24T04:50:56;12.40;;;4.95;;
64293;SDS011;50636;45.596;5.258;2023-04-24T04:53:23;8.65;;;3.80;;
64293;SDS011;50636;45.596;5.258;2023-04-24T04:55:48;5.75;;;2.38;;
64293;SDS011;50636;45.596;5.258;2023-04-24T04:58:14;12.13;;;2.85;;
64293;SDS011;50636;45.596;5.258;2023-04-24T05:00:40;12.48;;;3.65;;
64293;SDS011;50636;45.596;5.258;2023-04-24T05:03:06;13.00;;;5.68;;
64293;SDS011;50636;45.596;5.258;2023-04-24T05:05:32;10.40;;;2.83;;
64293;SDS011;50636;45.596;5.258;2023-04-24T05:07:57;20.90;;;4.00;;
64293;SDS011;50636;45.596;5.258;2023-04-24T05:10:23;17.38;;;4.35;;
64293;SDS011;50636;45.596;5.258;2023-04-24T05:12:49;10.68;;;3.30;;
64293;SDS011;50636;45.596;5.258;2023-04-24T05:15:15;7.13;;;2.92;;
64293;SDS011;50636;45.596;5.258;2023-04-24T05:17:41;13.80;;;2.97;;
64293;SDS011;50636;45.596;5.258;2023-04-24T05:20:06;17.33;;;9.00;;
64293;SDS011;50636;45.596;5.258;2023-04-24T05:22:33;17.15;;;14.63;;
64293;SDS011;50636;45.596;5.258;2023-04-24T05:24:58;20.38;;;8.20;;
64293;SDS011;50636;45.596;5.258;2023-04-24T05:27:24;32.13;;;11.15;;
64293;SDS011;50636;45.596;5.258;2023-04-24T05:29:50;10.57;;;4.72;;
64293;SDS011;50636;45.596;5.258;2023-04-24T05:32:16;47.78;;;5.18;;
64293;SDS011;50636;45.596;5.258;2023-04-24T05:34:42;11.98;;;4.65;;
64293;SDS011;50636;45.596;5.258;2023-04-24T05:37:08;12.48;;;5.63;;
64293;SDS011;50636;45.596;5.258;2023-04-24T05:39:35;11.60;;;4.05;;
64293;SDS011;50636;45.596;5.258;2023-04-24T05:42:01;7.15;;;3.72;;
64293;SDS011;50636;45.596;5.258;2023-04-24T05:44:29;6.50;;;2.90;;
64293;SDS011;50636;45.596;5.258;2023-04-24T05:46:55;11.68;;;2.85;;
64293;SDS011;50636;45.596;5.258;2023-04-24T05:49:21;18.20;;;4.50;;
64293;SDS011;50636;45.596;5.258;2023-04-24T05:51:47;10.98;;;3.08;;
64293;SDS011;50636;45.596;5.258;2023-04-24T05:54:13;7.32;;;2.65;;
64293;SDS011;50636;45.596;5.258;2023-04-24T05:56:39;9.85;;;2.75;;
64293;SDS011;50636;45.596;5.258;2023-04-24T05:59:05;10.85;;;2.90;;
64293;SDS011;50636;45.596;5.258;2023-04-24T06:01:32;19.02;;;3.88;;
64293;SDS011;50636;45.596;5.258;2023-04-24T06:03:58;11.10;;;2.30;;
64293;SDS011;50636;45.596;5.258;2023-04-24T06:06:24;5.07;;;1.75;;
64293;SDS011;50636;45.596;5.258;2023-04-24T06:08:51;9.07;;;2.13;;
64293;SDS011;50636;45.596;5.258;2023-04-24T06:11:16;8.02;;;1.63;;
64293;SDS011;50636;45.596;5.258;2023-04-24T06:13:42;6.20;;;2.00;;
64293;SDS011;50636;45.596;5.258;2023-04-24T06:16:08;7.60;;;2.15;;
64293;SDS011;50636;45.596;5.258;2023-04-24T06:18:34;9.32;;;1.95;;
64293;SDS011;50636;45.596;5.258;2023-04-24T06:21:00;4.82;;;1.80;;
64293;SDS011;50636;45.596;5.258;2023-04-24T06:23:26;3.38;;;1.50;;
64293;SDS011;50636;45.596;5.258;2023-04-24T06:25:52;14.02;;;2.33;;
64293;SDS011;50636;45.596;5.258;2023-04-24T06:28:17;29.08;;;4.28;;
64293;SDS011;50636;45.596;5.258;2023-04-24T06:30:43;15.00;;;2.80;;
64293;SDS011;50636;45.596;5.258;2023-04-24T06:33:09;8.65;;;1.92;;
64293;SDS011;50636;45.596;5.258;2023-04-24T06:35:35;8.15;;;1.88;;
64293;SDS011;50636;45.596;5.258;2023-04-24T06:38:03;11.98;;;2.33;;
64293;SDS011;50636;45.596;5.258;2023-04-24T06:40:29;9.20;;;2.38;;
64293;SDS011;50636;45.596;5.258;2023-04-24T06:42:55;10.00;;;1.80;;
64293;SDS011;50636;45.596;5.258;2023-04-24T06:45:21;8.85;;;1.67;;
64293;SDS011;50636;45.596;5.258;2023-04-24T06:47:46;5.25;;;1.90;;
64293;SDS011;50636;45.596;5.258;2023-04-24T06:50:12;11.35;;;1.60;;
64293;SDS011;50636;45.596;5.258;2023-04-24T06:52:38;5.10;;;1.30;;
64293;SDS011;50636;45.596;5.258;2023-04-24T06:55:04;12.10;;;1.58;;
64293;SDS011;50636;45.596;5.258;2023-04-24T06:57:31;4.97;;;1.45;;
64293;SDS011;50636;45.596;5.258;2023-04-24T06:59:56;6.15;;;2.05;;
64293;SDS011;50636;45.596;5.258;2023-04-24T07:02:22;10.95;;;1.95;;
64293;SDS011;50636;45.596;5.258;2023-04-24T07:04:48;7.00;;;1.55;;
64293;SDS011;50636;45.596;5.258;2023-04-24T07:07:14;12.93;;;2.38;;
64293;SDS011;50636;45.596;5.258;2023-04-24T07:09:40;17.10;;;2.53;;
64293;SDS011;50636;45.596;5.258;2023-04-24T07:12:07;19.13;;;2.40;;
64293;SDS011;50636;45.596;5.258;2023-04-24T07:14:35;8.55;;;2.00;;
64293;SDS011;50636;45.596;5.258;2023-04-24T07:17:02;9.48;;;2.10;;
64293;SDS011;50636;45.596;5.258;2023-04-24T07:19:29;13.20;;;1.95;;
64293;SDS011;50636;45.596;5.258;2023-04-24T07:21:54;7.25;;;1.60;;
64293;SDS011;50636;45.596;5.258;2023-04-24T07:24:20;14.82;;;2.00;;
64293;SDS011;50636;45.596;5.258;2023-04-24T07:26:46;24.33;;;2.58;;
64293;SDS011;50636;45.596;5.258;2023-04-24T07:29:12;11.10;;;2.05;;
64293;SDS011;50636;45.596;5.258;2023-04-24T07:31:39;11.98;;;2.35;;
64293;SDS011;50636;45.596;5.258;2023-04-24T07:34:06;17.90;;;2.08;;
64293;SDS011;50636;45.596;5.258;2023-04-24T07:36:32;9.18;;;2.10;;
64293;SDS011;50636;45.596;5.258;2023-04-24T07:39:00;13.88;;;2.03;;
64293;SDS011;50636;45.596;5.258;2023-04-24T07:41:25;11.73;;;2.20;;
64293;SDS011;50636;45.596;5.258;2023-04-24T07:43:53;16.13;;;1.83;;
64293;SDS011;50636;45.596;5.258;2023-04-24T07:46:19;12.55;;;1.90;;
64293;SDS011;50636;45.596;5.258;2023-04-24T07:48:45;18.35;;;2.60;;
64293;SDS011;50636;45.596;5.258;2023-04-24T07:51:13;14.65;;;2.10;;
64293;SDS011;50636;45.596;5.258;2023-04-24T07:53:40;9.43;;;2.08;;
64293;SDS011;50636;45.596;5.258;2023-04-24T07:56:06;6.22;;;1.70;;
64293;SDS011;50636;45.596;5.258;2023-04-24T07:58:32;11.25;;;2.30;;
64293;SDS011;50636;45.596;5.258;2023-04-24T08:00:58;9.98;;;1.80;;
64293;SDS011;50636;45.596;5.258;2023-04-24T08:03:24;7.57;;;1.77;;
64293;SDS011;50636;45.596;5.258;2023-04-24T08:05:50;24.15;;;3.05;;
64293;SDS011;50636;45.596;5.258;2023-04-24T08:08:16;15.18;;;2.83;;
64293;SDS011;50636;45.596;5.258;2023-04-24T08:10:42;5.30;;;1.50;;
64293;SDS011;50636;45.596;5.258;2023-04-24T08:13:08;5.22;;;1.55;;
64293;SDS011;50636;45.596;5.258;2023-04-24T08:15:34;9.63;;;2.42;;
64293;SDS011;50636;45.596;5.258;2023-04-24T08:18:00;4.65;;;1.60;;
64293;SDS011;50636;45.596;5.258;2023-04-24T08:20:26;5.03;;;1.60;;
64293;SDS011;50636;45.596;5.258;2023-04-24T08:22:51;10.05;;;1.63;;
64293;SDS011;50636;45.596;5.258;2023-04-24T08:25:17;4.38;;;1.42;;
64293;SDS011;50636;45.596;5.258;2023-04-24T08:27:44;7.00;;;1.90;;
64293;SDS011;50636;45.596;5.258;2023-04-24T08:30:10;13.30;;;2.50;;
64293;SDS011;50636;45.596;5.258;2023-04-24T08:32:36;8.52;;;1.55;;
64293;SDS011;50636;45.596;5.258;2023-04-24T08:35:02;14.20;;;2.20;;
64293;SDS011;50636;45.596;5.258;2023-04-24T08:37:28;18.90;;;3.30;;
64293;SDS011;50636;45.596;5.258;2023-04-24T08:39:54;11.40;;;2.63;;
64293;SDS011;50636;45.596;5.258;2023-04-24T08:42:20;15.40;;;2.30;;
64293;SDS011;50636;45.596;5.258;2023-04-24T08:44:48;7.68;;;1.50;;
64293;SDS011;50636;45.596;5.258;2023-04-24T08:47:15;8.50;;;1.88;;
64293;SDS011;50636;45.596;5.258;2023-04-24T08:49:41;13.40;;;2.22;;
64293;SDS011;50636;45.596;5.258;2023-04-24T08:52:08;7.65;;;2.17;;
64293;SDS011;50636;45.596;5.258;2023-04-24T08:54:35;10.48;;;1.83;;
64293;SDS011;50636;45.596;5.258;2023-04-24T08:57:02;9.35;;;1.88;;
64293;SDS011;50636;45.596;5.258;2023-04-24T08:59:29;5.60;;;1.90;;
64293;SDS011;50636;45.596;5.258;2023-04-24T09:01:56;11.82;;;2.40;;
64293;SDS011;50636;45.596;5.258;2023-04-24T09:04:22;15.57;;;2.15;;
64293;SDS011;50636;45.596;5.258;2023-04-24T09:06:55;19.77;;;2.70;;
64293;SDS011;50636;45.596;5.258;2023-04-24T09:09:23;17.20;;;2.90;;
64293;SDS011;50636;45.596;5.258;2023-04-24T09:11:50;9.63;;;1.77;;
64293;SDS011;50636;45.596;5.258;2023-04-24T09:14:18;13.18;;;2.35;;
64293;SDS011;50636;45.596;5.258;2023-04-24T09:16:45;7.90;;;2.03;;
64293;SDS011;50636;45.596;5.258;2023-04-24T09:19:11;11.50;;;2.25;;
64293;SDS011;50636;45.596;5.258;2023-04-24T09:21:37;16.42;;;2.00;;
64293;SDS011;50636;45.596;5.258;2023-04-24T09:24:04;19.35;;;3.20;;
64293;SDS011;50636;45.596;5.258;2023-04-24T09:26:34;11.88;;;1.98;;
64293;SDS011;50636;45.596;5.258;2023-04-24T09:29:01;29.25;;;2.88;;
64293;SDS011;50636;45.596;5.258;2023-04-24T09:31:28;22.77;;;2.67;;
64293;SDS011;50636;45.596;5.258;2023-04-24T09:34:01;16.35;;;2.47;;
64293;SDS011;50636;45.596;5.258;2023-04-24T09:36:34;13.80;;;2.30;;
64293;SDS011;50636;45.596;5.258;2023-04-24T09:39:06;12.00;;;2.47;;
64293;SDS011;50636;45.596;5.258;2023-04-24T09:41:35;9.85;;;1.67;;
64293;SDS011;50636;45.596;5.258;2023-04-24T09:44:11;9.07;;;2.03;;
64293;SDS011;50636;45.596;5.258;2023-04-24T09:46:38;9.07;;;1.55;;
64293;SDS011;50636;45.596;5.258;2023-04-24T09:49:13;11.52;;;2.17;;
64293;SDS011;50636;45.596;5.258;2023-04-24T09:51:41;14.25;;;2.28;;
64293;SDS011;50636;45.596;5.258;2023-04-24T09:54:14;20.33;;;2.70;;
64293;SDS011;50636;45.596;5.258;2023-04-24T09:56:45;7.30;;;1.60;;
64293;SDS011;50636;45.596;5.258;2023-04-24T09:59:16;11.05;;;2.25;;
64293;SDS011;50636;45.596;5.258;2023-04-24T10:01:43;3.20;;;1.50;;
64293;SDS011;50636;45.596;5.258;2023-04-24T10:06:46;5.03;;;1.58;;
64293;SDS011;50636;45.596;5.258;2023-04-24T10:09:14;10.20;;;1.60;;
64293;SDS011;50636;45.596;5.258;2023-04-24T10:11:48;10.32;;;1.88;;
64293;SDS011;50636;45.596;5.258;2023-04-24T10:14:16;3.83;;;1.25;;
64293;SDS011;50636;45.596;5.258;2023-04-24T10:16:43;5.57;;;1.30;;
64293;SDS011;50636;45.596;5.258;2023-04-24T10:19:12;5.32;;;1.40;;
64293;SDS011;50636;45.596;5.258;2023-04-24T10:21:39;6.10;;;1.48;;
64293;SDS011;50636;45.596;5.258;2023-04-24T10:24:14;3.10;;;1.10;;
64293;SDS011;50636;45.596;5.258;2023-04-24T10:26:42;5.15;;;1.23;;
64293;SDS011;50636;45.596;5.258;2023-04-24T10:29:10;7.22;;;1.48;;
64293;SDS011;50636;45.596;5.258;2023-04-24T10:31:37;9.32;;;2.38;;
64293;SDS011;50636;45.596;5.258;2023-04-24T10:34:04;7.60;;;1.48;;
64293;SDS011;50636;45.596;5.258;2023-04-24T10:36:34;5.47;;;1.50;;
64293;SDS011;50636;45.596;5.258;2023-04-24T10:39:06;8.75;;;1.65;;
64293;SDS011;50636;45.596;5.258;2023-04-24T10:41:36;6.75;;;1.30;;
64293;SDS011;50636;45.596;5.258;2023-04-24T10:44:10;5.78;;;1.35;;
64293;SDS011;50636;45.596;5.258;2023-04-24T10:46:38;5.20;;;1.35;;
64293;SDS011;50636;45.596;5.258;2023-04-24T10:49:07;17.50;;;2.63;;
64293;SDS011;50636;45.596;5.258;2023-04-24T10:51:50;6.78;;;1.58;;
64293;SDS011;50636;45.596;5.258;2023-04-24T10:54:24;19.52;;;3.05;;
64293;SDS011;50636;45.596;5.258;2023-04-24T11:02:47;10.68;;;2.40;;
64293;SDS011;50636;45.596;5.258;2023-04-24T11:05:16;5.93;;;1.40;;
64293;SDS011;50636;45.596;5.258;2023-04-24T11:08:28;12.23;;;1.73;;
64293;SDS011;50636;45.596;5.258;2023-04-24T11:10:38;11.77;;;1.80;;
64293;SDS011;50636;45.596;5.258;2023-04-24T11:13:24;9.00;;;1.40;;
64293;SDS011;50636;45.596;5.258;2023-04-24T11:19:04;12.68;;;2.35;;
64293;SDS011;50636;45.596;5.258;2023-04-24T11:21:40;3.72;;;1.23;;
64293;SDS011;50636;45.596;5.258;2023-04-24T11:24:26;13.68;;;1.55;;
64293;SDS011;50636;45.596;5.258;2023-04-24T11:27:12;19.67;;;2.20;;
64293;SDS011;50636;45.596;5.258;2023-04-24T11:32:38;17.10;;;2.40;;
64293;SDS011;50636;45.596;5.258;2023-04-24T11:35:14;5.47;;;1.58;;
64293;SDS011;50636;45.596;5.258;2023-04-24T11:37:45;31.48;;;4.53;;
64293;SDS011;50636;45.596;5.258;2023-04-24T11:40:16;10.27;;;1.98;;
64293;SDS011;50636;45.596;5.258;2023-04-24T11:42:44;15.20;;;3.28;;
64293;SDS011;50636;45.596;5.258;2023-04-24T11:45:12;11.48;;;2.13;;
64293;SDS011;50636;45.596;5.258;2023-04-24T11:47:47;11.18;;;2.03;;
64293;SDS011;50636;45.596;5.258;2023-04-24T11:50:14;16.83;;;2.08;;
64293;SDS011;50636;45.596;5.258;2023-04-24T11:52:42;23.90;;;2.83;;
64293;SDS011;50636;45.596;5.258;2023-04-24T11:57:45;15.30;;;2.42;;
64293;SDS011;50636;45.596;5.258;2023-04-24T12:00:22;40.97;;;5.70;;
64293;SDS011;50636;45.596;5.258;2023-04-24T12:02:49;15.80;;;3.47;;
64293;SDS011;50636;45.596;5.258;2023-04-24T12:05:22;31.05;;;5.18;;
64293;SDS011;50636;45.596;5.258;2023-04-24T12:07:49;14.57;;;3.60;;
64293;SDS011;50636;45.596;5.258;2023-04-24T12:10:19;31.73;;;5.47;;
64293;SDS011;50636;45.596;5.258;2023-04-24T12:12:49;13.85;;;2.85;;
64293;SDS011;50636;45.596;5.258;2023-04-24T12:15:17;11.13;;;1.90;;
64293;SDS011;50636;45.596;5.258;2023-04-24T12:17:46;16.65;;;2.88;;
64293;SDS011;50636;45.596;5.258;2023-04-24T12:20:13;14.48;;;3.45;;
64293;SDS011;50636;45.596;5.258;2023-04-24T12:22:43;5.90;;;1.60;;
64293;SDS011;50636;45.596;5.258;2023-04-24T12:25:17;13.23;;;2.58;;
64293;SDS011;50636;45.596;5.258;2023-04-24T12:27:45;14.02;;;2.97;;
64293;SDS011;50636;45.596;5.258;2023-04-24T12:30:13;16.35;;;3.22;;
64293;SDS011;50636;45.596;5.258;2023-04-24T12:32:45;15.93;;;2.92;;
64293;SDS011;50636;45.596;5.258;2023-04-24T12:35:23;6.05;;;1.50;;
64293;SDS011;50636;45.596;5.258;2023-04-24T12:37:51;5.72;;;1.52;;
64293;SDS011;50636;45.596;5.258;2023-04-24T12:40:17;8.13;;;1.80;;
64293;SDS011;50636;45.596;5.258;2023-04-24T12:45:11;13.35;;;1.95;;
64293;SDS011;50636;45.596;5.258;2023-04-24T12:47:37;3.95;;;1.48;;
64293;SDS011;50636;45.596;5.258;2023-04-24T12:50:05;14.73;;;1.95;;
64293;SDS011;50636;45.596;5.258;2023-04-24T12:52:32;7.15;;;1.55;;
64293;SDS011;50636;45.596;5.258;2023-04-24T12:54:59;9.07;;;1.77;;
64293;SDS011;50636;45.596;5.258;2023-04-24T12:57:26;7.30;;;1.95;;
64293;SDS011;50636;45.596;5.258;2023-04-24T12:59:54;13.82;;;1.55;;
64293;SDS011;50636;45.596;5.258;2023-04-24T13:02:21;10.15;;;1.95;;
64293;SDS011;50636;45.596;5.258;2023-04-24T13:04:48;5.15;;;1.42;;
64293;SDS011;50636;45.596;5.258;2023-04-24T13:07:15;8.77;;;1.83;;
64293;SDS011;50636;45.596;5.258;2023-04-24T13:09:42;9.00;;;1.83;;
64293;SDS011;50636;45.596;5.258;2023-04-24T13:12:08;11.15;;;3.00;;
64293;SDS011;50636;45.596;5.258;2023-04-24T13:14:35;7.03;;;1.65;;
64293;SDS011;50636;45.596;5.258;2023-04-24T13:17:01;10.20;;;1.73;;
64293;SDS011;50636;45.596;5.258;2023-04-24T13:19:28;8.40;;;2.42;;
64293;SDS011;50636;45.596;5.258;2023-04-24T13:21:54;8.45;;;1.58;;
64293;SDS011;50636;45.596;5.258;2023-04-24T13:24:22;7.57;;;1.42;;
64293;SDS011;50636;45.596;5.258;2023-04-24T13:26:52;3.53;;;1.33;;
64293;SDS011;50636;45.596;5.258;2023-04-24T13:29:18;9.57;;;1.83;;
64293;SDS011;50636;45.596;5.258;2023-04-24T13:31:45;14.20;;;2.90;;
64293;SDS011;50636;45.596;5.258;2023-04-24T13:34:12;6.03;;;1.80;;
64293;SDS011;50636;45.596;5.258;2023-04-24T13:36:38;9.73;;;2.95;;
64293;SDS011;50636;45.596;5.258;2023-04-24T13:39:05;8.82;;;2.35;;
64293;SDS011;50636;45.596;5.258;2023-04-24T13:41:32;17.15;;;3.92;;
64293;SDS011;50636;45.596;5.258;2023-04-24T13:43:59;9.02;;;2.17;;
64293;SDS011;50636;45.596;5.258;2023-04-24T13:46:25;7.28;;;1.70;;
64293;SDS011;50636;45.596;5.258;2023-04-24T13:48:51;10.02;;;2.42;;
64293;SDS011;50636;45.596;5.258;2023-04-24T13:51:17;12.73;;;2.28;;
64293;SDS011;50636;45.596;5.258;2023-04-24T13:53:43;8.23;;;1.48;;
64293;SDS011;50636;45.596;5.258;2023-04-24T13:56:10;3.60;;;1.30;;
64293;SDS011;50636;45.596;5.258;2023-04-24T13:58:37;4.70;;;1.25;;
64293;SDS011;50636;45.596;5.258;2023-04-24T14:01:04;5.43;;;1.50;;
64293;SDS011;50636;45.596;5.258;2023-04-24T14:03:30;3.58;;;1.15;;
64293;SDS011;50636;45.596;5.258;2023-04-24T14:05:56;8.32;;;1.90;;
64293;SDS011;50636;45.596;5.258;2023-04-24T14:08:22;9.25;;;1.80;;
64293;SDS011;50636;45.596;5.258;2023-04-24T14:10:49;9.57;;;1.73;;
64293;SDS011;50636;45.596;5.258;2023-04-24T14:13:16;7.57;;;1.45;;
64293;SDS011;50636;45.596;5.258;2023-04-24T14:15:42;9.40;;;1.67;;
64293;SDS011;50636;45.596;5.258;2023-04-24T14:18:08;7.53;;;1.95;;
64293;SDS011;50636;45.596;5.258;2023-04-24T14:20:34;3.85;;;1.63;;
64293;SDS011;50636;45.596;5.258;2023-04-24T14:23:00;8.57;;;1.92;;
64293;SDS011;50636;45.596;5.258;2023-04-24T14:25:26;7.20;;;2.13;;
64293;SDS011;50636;45.596;5.258;2023-04-24T14:27:52;9.88;;;1.77;;
64293;SDS011;50636;45.596;5.258;2023-04-24T14:30:18;8.48;;;1.35;;
64293;SDS011;50636;45.596;5.258;2023-04-24T14:32:44;8.38;;;1.67;;
64293;SDS011;50636;45.596;5.258;2023-04-24T14:35:10;9.20;;;1.52;;
64293;SDS011;50636;45.596;5.258;2023-04-24T14:37:36;6.05;;;1.48;;
64293;SDS011;50636;45.596;5.258;2023-04-24T14:40:02;3.28;;;1.02;;
64293;SDS011;50636;45.596;5.258;2023-04-24T14:42:30;6.93;;;1.35;;
64293;SDS011;50636;45.596;5.258;2023-04-24T14:44:56;6.28;;;1.88;;
64293;SDS011;50636;45.596;5.258;2023-04-24T14:47:22;6.90;;;1.50;;
64293;SDS011;50636;45.596;5.258;2023-04-24T14:49:48;10.38;;;1.77;;
64293;SDS011;50636;45.596;5.258;2023-04-24T14:52:14;8.52;;;2.13;;
64293;SDS011;50636;45.596;5.258;2023-04-24T14:54:41;8.10;;;1.98;;
64293;SDS011;50636;45.596;5.258;2023-04-24T14:57:07;6.00;;;1.52;;
64293;SDS011;50636;45.596;5.258;2023-04-24T14:59:33;5.25;;;1.50;;
64293;SDS011;50636;45.596;5.258;2023-04-24T15:02:00;10.65;;;2.00;;